sensor_id;sensor_type;location;lat;lon;timestamp;temperature;humidity
30473;DHT22;17263;48.160;11.452;2023-10-19T00:00:48;7.70;99.90
30473;DHT22;17263;48.160;11.452;2023-10-19T00:03:16;7.70;99.90
30473;DHT22;17263;48.160;11.452;2023-10-19T00:05:43;7.70;99.90
30473;DHT22;17263;48.160;11.452;2023-10-19T00:08:13;7.60;99.90
30473;DHT22;17263;48.160;11.452;2023-10-19T00:10:43;7.60;99.90
30473;DHT22;17263;48.160;11.452;2023-10-19T00:13:11;7.70;99.90
30473;DHT22;17263;48.160;11.452;2023-10-19T00:15:39;7.70;99.90
30473;DHT22;17263;48.160;11.452;2023-10-19T00:18:14;7.70;99.90
30473;DHT22;17263;48.160;11.452;2023-10-19T00:20:48;7.60;99.90
30473;DHT22;17263;48.160;11.452;2023-10-19T00:23:20;7.70;99.90
30473;DHT22;17263;48.160;11.452;2023-10-19T00:26:01;7.60;99.90
30473;DHT22;17263;48.160;11.452;2023-10-19T00:28:44;7.70;99.90
30473;DHT22;17263;48.160;11.452;2023-10-19T00:31:12;7.70;99.90
30473;DHT22;17263;48.160;11.452;2023-10-19T00:33:39;7.70;99.90
30473;DHT22;17263;48.160;11.452;2023-10-19T00:38:37;7.70;99.90
30473;DHT22;17263;48.160;11.452;2023-10-19T00:41:05;7.70;99.90
30473;DHT22;17263;48.160;11.452;2023-10-19T00:43:34;7.80;99.90
30473;DHT22;17263;48.160;11.452;2023-10-19T00:46:10;7.80;99.90
30473;DHT22;17263;48.160;11.452;2023-10-19T00:48:57;7.80;99.90
30473;DHT22;17263;48.160;11.452;2023-10-19T00:51:28;7.70;99.90
30473;DHT22;17263;48.160;11.452;2023-10-19T00:54:04;7.70;99.90
30473;DHT22;17263;48.160;11.452;2023-10-19T00:56:35;7.70;99.90
30473;DHT22;17263;48.160;11.452;2023-10-19T00:59:04;7.70;99.90
30473;DHT22;17263;48.160;11.452;2023-10-19T01:01:41;7.70;99.90
30473;DHT22;17263;48.160;11.452;2023-10-19T01:04:11;7.70;99.90
30473;DHT22;17263;48.160;11.452;2023-10-19T01:06:46;7.70;99.90
30473;DHT22;17263;48.160;11.452;2023-10-19T01:09:28;7.70;99.90
30473;DHT22;17263;48.160;11.452;2023-10-19T01:11:54;7.70;99.90
30473;DHT22;17263;48.160;11.452;2023-10-19T01:14:23;7.80;99.90
30473;DHT22;17263;48.160;11.452;2023-10-19T01:16:54;7.80;99.90
30473;DHT22;17263;48.160;11.452;2023-10-19T01:19:23;7.80;99.90
30473;DHT22;17263;48.160;11.452;2023-10-19T01:21:49;7.80;99.90
30473;DHT22;17263;48.160;11.452;2023-10-19T01:24:19;7.80;99.90
30473;DHT22;17263;48.160;11.452;2023-10-19T01:26:55;7.90;99.90
30473;DHT22;17263;48.160;11.452;2023-10-19T01:29:22;7.80;99.90
30473;DHT22;17263;48.160;11.452;2023-10-19T01:31:52;7.80;99.90
30473;DHT22;17263;48.160;11.452;2023-10-19T01:34:22;7.80;99.90
30473;DHT22;17263;48.160;11.452;2023-10-19T01:36:48;7.80;99.90
30473;DHT22;17263;48.160;11.452;2023-10-19T01:39:17;7.80;99.90
30473;DHT22;17263;48.160;11.452;2023-10-19T01:41:45;7.80;99.90
30473;DHT22;17263;48.160;11.452;2023-10-19T01:44:11;7.80;99.90
30473;DHT22;17263;48.160;11.452;2023-10-19T01:46:41;7.80;99.90
30473;DHT22;17263;48.160;11.452;2023-10-19T01:49:09;7.70;99.90
30473;DHT22;17263;48.160;11.452;2023-10-19T01:51:36;7.70;99.90
30473;DHT22;17263;48.160;11.452;2023-10-19T01:54:08;7.70;99.90
30473;DHT22;17263;48.160;11.452;2023-10-19T01:56:35;7.70;99.90
30473;DHT22;17263;48.160;11.452;2023-10-19T01:59:03;7.70;99.90
30473;DHT22;17263;48.160;11.452;2023-10-19T02:01:33;7.70;99.90
30473;DHT22;17263;48.160;11.452;2023-10-19T02:04:05;7.70;99.90
30473;DHT22;17263;48.160;11.452;2023-10-19T02:06:35;7.70;99.90
30473;DHT22;17263;48.160;11.452;2023-10-19T02:11:43;7.70;99.90
30473;DHT22;17263;48.160;11.452;2023-10-19T02:14:12;7.80;99.90
30473;DHT22;17263;48.160;11.452;2023-10-19T02:16:43;7.80;99.90
30473;DHT22;17263;48.160;11.452;2023-10-19T02:19:12;7.80;99.90
30473;DHT22;17263;48.160;11.452;2023-10-19T02:21:39;7.90;99.90
30473;DHT22;17263;48.160;11.452;2023-10-19T02:24:09;7.90;99.90
30473;DHT22;17263;48.160;11.452;2023-10-19T02:26:41;7.90;99.90
30473;DHT22;17263;48.160;11.452;2023-10-19T02:29:07;7.90;99.90
30473;DHT22;17263;48.160;11.452;2023-10-19T02:31:34;7.90;99.90
30473;DHT22;17263;48.160;11.452;2023-10-19T02:34:00;7.90;99.90
30473;DHT22;17263;48.160;11.452;2023-10-19T02:36:27;7.90;99.90
30473;DHT22;17263;48.160;11.452;2023-10-19T02:41:26;7.90;99.90
30473;DHT22;17263;48.160;11.452;2023-10-19T02:43:55;7.90;99.90
30473;DHT22;17263;48.160;11.452;2023-10-19T02:46:28;8.00;99.90
30473;DHT22;17263;48.160;11.452;2023-10-19T02:48:55;8.00;99.90
30473;DHT22;17263;48.160;11.452;2023-10-19T02:51:21;7.90;99.90
30473;DHT22;17263;48.160;11.452;2023-10-19T02:53:47;8.00;99.90
30473;DHT22;17263;48.160;11.452;2023-10-19T02:56:14;8.00;99.90
30473;DHT22;17263;48.160;11.452;2023-10-19T02:58:46;8.00;99.90
30473;DHT22;17263;48.160;11.452;2023-10-19T03:01:23;8.00;99.90
30473;DHT22;17263;48.160;11.452;2023-10-19T03:03:51;7.90;99.90
30473;DHT22;17263;48.160;11.452;2023-10-19T03:06:21;7.90;99.90
30473;DHT22;17263;48.160;11.452;2023-10-19T03:08:48;7.90;99.90
30473;DHT22;17263;48.160;11.452;2023-10-19T03:11:18;7.90;99.90
30473;DHT22;17263;48.160;11.452;2023-10-19T03:13:45;7.90;99.90
30473;DHT22;17263;48.160;11.452;2023-10-19T03:16:11;7.90;99.90
30473;DHT22;17263;48.160;11.452;2023-10-19T03:18:37;7.90;99.90
30473;DHT22;17263;48.160;11.452;2023-10-19T03:21:04;7.90;99.90
30473;DHT22;17263;48.160;11.452;2023-10-19T03:23:30;7.90;99.90
30473;DHT22;17263;48.160;11.452;2023-10-19T03:26:00;7.90;99.90
30473;DHT22;17263;48.160;11.452;2023-10-19T03:28:45;7.90;99.90
30473;DHT22;17263;48.160;11.452;2023-10-19T03:31:12;7.90;99.90
30473;DHT22;17263;48.160;11.452;2023-10-19T03:33:45;7.90;99.90
30473;DHT22;17263;48.160;11.452;2023-10-19T03:36:15;8.00;99.90
30473;DHT22;17263;48.160;11.452;2023-10-19T03:38:41;8.00;99.90
30473;DHT22;17263;48.160;11.452;2023-10-19T03:41:07;8.00;99.90
30473;DHT22;17263;48.160;11.452;2023-10-19T03:43:35;8.00;99.90
30473;DHT22;17263;48.160;11.452;2023-10-19T03:46:06;8.10;99.90
30473;DHT22;17263;48.160;11.452;2023-10-19T03:48:55;8.10;99.90
30473;DHT22;17263;48.160;11.452;2023-10-19T03:51:27;8.10;99.90
30473;DHT22;17263;48.160;11.452;2023-10-19T03:54:08;8.10;99.90
30473;DHT22;17263;48.160;11.452;2023-10-19T03:56:50;8.10;99.90
30473;DHT22;17263;48.160;11.452;2023-10-19T03:59:18;8.10;99.90
30473;DHT22;17263;48.160;11.452;2023-10-19T04:01:46;8.10;99.90
30473;DHT22;17263;48.160;11.452;2023-10-19T04:04:13;8.10;99.90
30473;DHT22;17263;48.160;11.452;2023-10-19T04:06:40;8.10;99.90
30473;DHT22;17263;48.160;11.452;2023-10-19T04:09:06;8.20;99.90
30473;DHT22;17263;48.160;11.452;2023-10-19T04:11:35;8.20;99.90
30473;DHT22;17263;48.160;11.452;2023-10-19T04:14:18;8.20;99.90
30473;DHT22;17263;48.160;11.452;2023-10-19T04:16:46;8.20;99.90
30473;DHT22;17263;48.160;11.452;2023-10-19T04:19:14;8.20;99.90
30473;DHT22;17263;48.160;11.452;2023-10-19T04:21:42;8.20;99.90
30473;DHT22;17263;48.160;11.452;2023-10-19T04:24:13;8.30;99.90
30473;DHT22;17263;48.160;11.452;2023-10-19T04:26:40;8.30;99.90
30473;DHT22;17263;48.160;11.452;2023-10-19T04:29:07;8.30;99.90
30473;DHT22;17263;48.160;11.452;2023-10-19T04:31:53;8.30;99.90
30473;DHT22;17263;48.160;11.452;2023-10-19T04:34:23;8.30;99.90
30473;DHT22;17263;48.160;11.452;2023-10-19T04:36:50;8.40;99.90
30473;DHT22;17263;48.160;11.452;2023-10-19T04:39:18;8.40;99.90
30473;DHT22;17263;48.160;11.452;2023-10-19T04:41:46;8.40;99.90
30473;DHT22;17263;48.160;11.452;2023-10-19T04:44:15;8.40;99.90
30473;DHT22;17263;48.160;11.452;2023-10-19T04:46:42;8.40;99.90
30473;DHT22;17263;48.160;11.452;2023-10-19T04:49:08;8.40;99.90
30473;DHT22;17263;48.160;11.452;2023-10-19T04:51:34;8.40;99.90
30473;DHT22;17263;48.160;11.452;2023-10-19T04:54:05;8.40;99.90
30473;DHT22;17263;48.160;11.452;2023-10-19T04:56:34;8.50;99.90
30473;DHT22;17263;48.160;11.452;2023-10-19T04:59:04;8.50;99.90
30473;DHT22;17263;48.160;11.452;2023-10-19T05:01:31;8.50;99.90
30473;DHT22;17263;48.160;11.452;2023-10-19T05:04:00;8.50;99.90
30473;DHT22;17263;48.160;11.452;2023-10-19T05:06:26;8.50;99.90
30473;DHT22;17263;48.160;11.452;2023-10-19T05:08:52;8.50;99.90
30473;DHT22;17263;48.160;11.452;2023-10-19T05:11:18;8.50;99.90
30473;DHT22;17263;48.160;11.452;2023-10-19T05:13:44;8.60;99.90
30473;DHT22;17263;48.160;11.452;2023-10-19T05:16:10;8.50;99.90
30473;DHT22;17263;48.160;11.452;2023-10-19T05:18:36;8.50;99.90
30473;DHT22;17263;48.160;11.452;2023-10-19T05:21:02;8.50;99.90
30473;DHT22;17263;48.160;11.452;2023-10-19T05:23:28;8.50;99.90
30473;DHT22;17263;48.160;11.452;2023-10-19T05:26:00;8.50;99.90
30473;DHT22;17263;48.160;11.452;2023-10-19T05:28:26;8.50;99.90
30473;DHT22;17263;48.160;11.452;2023-10-19T05:30:52;8.50;99.90
30473;DHT22;17263;48.160;11.452;2023-10-19T05:33:18;8.50;99.90
30473;DHT22;17263;48.160;11.452;2023-10-19T05:35:50;8.50;99.90
30473;DHT22;17263;48.160;11.452;2023-10-19T05:38:17;8.50;99.90
30473;DHT22;17263;48.160;11.452;2023-10-19T05:40:45;8.50;99.90
30473;DHT22;17263;48.160;11.452;2023-10-19T05:43:11;8.50;99.90
30473;DHT22;17263;48.160;11.452;2023-10-19T05:45:38;8.50;99.90
30473;DHT22;17263;48.160;11.452;2023-10-19T05:48:04;8.50;99.90
30473;DHT22;17263;48.160;11.452;2023-10-19T05:50:33;8.50;99.90
30473;DHT22;17263;48.160;11.452;2023-10-19T05:53:00;8.50;99.90
30473;DHT22;17263;48.160;11.452;2023-10-19T05:55:26;8.50;99.90
30473;DHT22;17263;48.160;11.452;2023-10-19T05:57:55;8.50;99.90
30473;DHT22;17263;48.160;11.452;2023-10-19T06:00:23;8.50;99.90
30473;DHT22;17263;48.160;11.452;2023-10-19T06:02:54;8.50;99.90
30473;DHT22;17263;48.160;11.452;2023-10-19T06:05:20;8.50;99.90
30473;DHT22;17263;48.160;11.452;2023-10-19T06:07:50;8.50;99.90
30473;DHT22;17263;48.160;11.452;2023-10-19T06:10:19;8.50;99.90
30473;DHT22;17263;48.160;11.452;2023-10-19T06:12:49;8.50;99.90
30473;DHT22;17263;48.160;11.452;2023-10-19T06:15:21;8.50;99.90
30473;DHT22;17263;48.160;11.452;2023-10-19T06:17:54;8.60;99.90
30473;DHT22;17263;48.160;11.452;2023-10-19T06:20:22;8.60;99.90
30473;DHT22;17263;48.160;11.452;2023-10-19T06:22:58;8.60;99.90
30473;DHT22;17263;48.160;11.452;2023-10-19T06:25:34;8.70;99.90
30473;DHT22;17263;48.160;11.452;2023-10-19T06:28:03;8.70;99.90
30473;DHT22;17263;48.160;11.452;2023-10-19T06:30:29;8.70;99.90
30473;DHT22;17263;48.160;11.452;2023-10-19T06:33:00;8.70;99.90
30473;DHT22;17263;48.160;11.452;2023-10-19T06:35:28;8.70;99.90
30473;DHT22;17263;48.160;11.452;2023-10-19T06:37:55;8.80;99.90
30473;DHT22;17263;48.160;11.452;2023-10-19T06:40:21;8.90;99.90
30473;DHT22;17263;48.160;11.452;2023-10-19T06:42:54;8.90;99.90
30473;DHT22;17263;48.160;11.452;2023-10-19T06:45:24;9.00;99.90
30473;DHT22;17263;48.160;11.452;2023-10-19T06:47:56;9.10;99.90
30473;DHT22;17263;48.160;11.452;2023-10-19T06:50:26;9.10;99.90
30473;DHT22;17263;48.160;11.452;2023-10-19T06:52:58;9.10;99.90
30473;DHT22;17263;48.160;11.452;2023-10-19T06:55:24;9.20;99.90
30473;DHT22;17263;48.160;11.452;2023-10-19T06:57:52;9.30;99.90
30473;DHT22;17263;48.160;11.452;2023-10-19T07:00:20;9.30;99.90
30473;DHT22;17263;48.160;11.452;2023-10-19T07:02:49;9.30;99.90
30473;DHT22;17263;48.160;11.452;2023-10-19T07:05:19;9.40;99.90
30473;DHT22;17263;48.160;11.452;2023-10-19T07:07:54;9.50;99.90
30473;DHT22;17263;48.160;11.452;2023-10-19T07:10:23;9.60;99.90
30473;DHT22;17263;48.160;11.452;2023-10-19T07:12:54;9.70;99.90
30473;DHT22;17263;48.160;11.452;2023-10-19T07:15:21;9.90;99.90
30473;DHT22;17263;48.160;11.452;2023-10-19T07:17:51;10.00;99.90
30473;DHT22;17263;48.160;11.452;2023-10-19T07:20:21;10.20;99.90
30473;DHT22;17263;48.160;11.452;2023-10-19T07:23:03;10.30;99.90
30473;DHT22;17263;48.160;11.452;2023-10-19T07:25:46;10.40;99.90
30473;DHT22;17263;48.160;11.452;2023-10-19T07:28:25;10.50;99.90
30473;DHT22;17263;48.160;11.452;2023-10-19T07:30:56;10.50;99.90
30473;DHT22;17263;48.160;11.452;2023-10-19T07:33:22;10.70;99.90
30473;DHT22;17263;48.160;11.452;2023-10-19T07:35:51;10.70;99.90
30473;DHT22;17263;48.160;11.452;2023-10-19T07:38:26;10.80;99.90
30473;DHT22;17263;48.160;11.452;2023-10-19T07:40:54;10.90;99.90
30473;DHT22;17263;48.160;11.452;2023-10-19T07:43:21;11.00;99.90
30473;DHT22;17263;48.160;11.452;2023-10-19T07:45:50;11.00;99.90
30473;DHT22;17263;48.160;11.452;2023-10-19T07:48:18;11.10;99.90
30473;DHT22;17263;48.160;11.452;2023-10-19T07:50:44;11.10;99.90
30473;DHT22;17263;48.160;11.452;2023-10-19T07:53:10;11.10;99.90
30473;DHT22;17263;48.160;11.452;2023-10-19T07:55:36;11.20;99.90
30473;DHT22;17263;48.160;11.452;2023-10-19T07:58:04;11.20;99.90
30473;DHT22;17263;48.160;11.452;2023-10-19T08:00:32;11.30;99.90
30473;DHT22;17263;48.160;11.452;2023-10-19T08:03:00;11.40;99.90
30473;DHT22;17263;48.160;11.452;2023-10-19T08:05:26;11.50;99.90
30473;DHT22;17263;48.160;11.452;2023-10-19T08:07:52;11.60;99.90
30473;DHT22;17263;48.160;11.452;2023-10-19T08:10:19;11.70;99.90
30473;DHT22;17263;48.160;11.452;2023-10-19T08:12:47;11.70;99.90
30473;DHT22;17263;48.160;11.452;2023-10-19T08:15:14;11.80;99.90
30473;DHT22;17263;48.160;11.452;2023-10-19T08:17:43;11.90;99.90
30473;DHT22;17263;48.160;11.452;2023-10-19T08:20:12;12.00;99.90
30473;DHT22;17263;48.160;11.452;2023-10-19T08:22:57;12.00;99.90
30473;DHT22;17263;48.160;11.452;2023-10-19T08:25:25;12.10;99.90
30473;DHT22;17263;48.160;11.452;2023-10-19T08:27:54;12.20;99.90
30473;DHT22;17263;48.160;11.452;2023-10-19T08:30:23;12.30;99.90
30473;DHT22;17263;48.160;11.452;2023-10-19T08:32:51;12.40;99.90
30473;DHT22;17263;48.160;11.452;2023-10-19T08:35:18;12.60;99.90
30473;DHT22;17263;48.160;11.452;2023-10-19T08:37:47;12.70;99.90
30473;DHT22;17263;48.160;11.452;2023-10-19T08:40:13;12.80;99.90
30473;DHT22;17263;48.160;11.452;2023-10-19T08:42:44;12.80;99.90
30473;DHT22;17263;48.160;11.452;2023-10-19T08:45:14;12.90;99.90
30473;DHT22;17263;48.160;11.452;2023-10-19T08:48:00;12.90;99.90
30473;DHT22;17263;48.160;11.452;2023-10-19T08:50:29;13.00;99.90
30473;DHT22;17263;48.160;11.452;2023-10-19T08:52:57;13.00;99.90
30473;DHT22;17263;48.160;11.452;2023-10-19T08:55:23;13.00;99.90
30473;DHT22;17263;48.160;11.452;2023-10-19T08:57:50;13.00;99.90
30473;DHT22;17263;48.160;11.452;2023-10-19T09:00:18;13.10;99.90
30473;DHT22;17263;48.160;11.452;2023-10-19T09:02:45;13.10;99.90
30473;DHT22;17263;48.160;11.452;2023-10-19T09:05:11;13.20;99.90
30473;DHT22;17263;48.160;11.452;2023-10-19T09:07:55;13.20;99.90
30473;DHT22;17263;48.160;11.452;2023-10-19T09:10:28;13.20;99.90
30473;DHT22;17263;48.160;11.452;2023-10-19T09:13:07;13.20;99.90
30473;DHT22;17263;48.160;11.452;2023-10-19T09:15:39;13.30;99.90
30473;DHT22;17263;48.160;11.452;2023-10-19T09:18:23;13.30;99.90
30473;DHT22;17263;48.160;11.452;2023-10-19T09:20:51;13.40;99.90
30473;DHT22;17263;48.160;11.452;2023-10-19T09:23:34;13.40;99.90
30473;DHT22;17263;48.160;11.452;2023-10-19T09:26:01;13.40;99.90
30473;DHT22;17263;48.160;11.452;2023-10-19T09:28:32;13.50;99.90
30473;DHT22;17263;48.160;11.452;2023-10-19T09:31:00;13.50;99.90
30473;DHT22;17263;48.160;11.452;2023-10-19T09:33:27;13.50;99.90
30473;DHT22;17263;48.160;11.452;2023-10-19T09:35:53;13.50;99.90
30473;DHT22;17263;48.160;11.452;2023-10-19T09:38:22;13.60;99.90
30473;DHT22;17263;48.160;11.452;2023-10-19T09:40:52;13.60;99.90
30473;DHT22;17263;48.160;11.452;2023-10-19T09:43:44;13.60;99.90
30473;DHT22;17263;48.160;11.452;2023-10-19T09:46:11;13.70;99.90
30473;DHT22;17263;48.160;11.452;2023-10-19T09:48:42;13.80;99.90
30473;DHT22;17263;48.160;11.452;2023-10-19T09:51:10;13.80;99.90
30473;DHT22;17263;48.160;11.452;2023-10-19T09:53:38;13.90;99.90
30473;DHT22;17263;48.160;11.452;2023-10-19T09:56:06;14.10;99.90
30473;DHT22;17263;48.160;11.452;2023-10-19T09:58:54;14.20;99.90
30473;DHT22;17263;48.160;11.452;2023-10-19T10:01:21;14.30;99.90
30473;DHT22;17263;48.160;11.452;2023-10-19T10:03:52;14.50;99.90
30473;DHT22;17263;48.160;11.452;2023-10-19T10:09:18;15.00;99.90
30473;DHT22;17263;48.160;11.452;2023-10-19T10:11:54;15.20;99.90
30473;DHT22;17263;48.160;11.452;2023-10-19T10:14:25;15.30;99.90
30473;DHT22;17263;48.160;11.452;2023-10-19T10:17:03;15.30;99.90
30473;DHT22;17263;48.160;11.452;2023-10-19T10:19:31;15.30;99.90
30473;DHT22;17263;48.160;11.452;2023-10-19T10:22:13;15.30;99.90
30473;DHT22;17263;48.160;11.452;2023-10-19T10:24:44;15.20;99.90
30473;DHT22;17263;48.160;11.452;2023-10-19T10:27:10;15.20;99.90
30473;DHT22;17263;48.160;11.452;2023-10-19T10:35:09;15.20;99.90
30473;DHT22;17263;48.160;11.452;2023-10-19T10:37:38;15.10;99.90
30473;DHT22;17263;48.160;11.452;2023-10-19T10:40:06;15.20;99.90
30473;DHT22;17263;48.160;11.452;2023-10-19T10:42:32;15.10;99.90
30473;DHT22;17263;48.160;11.452;2023-10-19T10:45:00;15.20;99.90
30473;DHT22;17263;48.160;11.452;2023-10-19T10:47:28;15.20;99.90
30473;DHT22;17263;48.160;11.452;2023-10-19T10:50:00;15.30;99.90
30473;DHT22;17263;48.160;11.452;2023-10-19T10:52:30;15.30;99.90
30473;DHT22;17263;48.160;11.452;2023-10-19T10:55:17;15.40;99.90
30473;DHT22;17263;48.160;11.452;2023-10-19T10:57:44;15.50;99.90
30473;DHT22;17263;48.160;11.452;2023-10-19T11:00:14;15.50;99.90
30473;DHT22;17263;48.160;11.452;2023-10-19T11:03:03;15.60;99.90
30473;DHT22;17263;48.160;11.452;2023-10-19T11:05:30;15.70;99.90
30473;DHT22;17263;48.160;11.452;2023-10-19T11:08:09;15.70;99.90
30473;DHT22;17263;48.160;11.452;2023-10-19T11:10:35;15.80;99.90
30473;DHT22;17263;48.160;11.452;2023-10-19T11:13:09;15.90;99.90
30473;DHT22;17263;48.160;11.452;2023-10-19T11:15:39;15.90;99.90
30473;DHT22;17263;48.160;11.452;2023-10-19T11:18:05;15.90;99.90
30473;DHT22;17263;48.160;11.452;2023-10-19T11:20:35;16.00;99.90
30473;DHT22;17263;48.160;11.452;2023-10-19T11:23:01;16.10;99.90
30473;DHT22;17263;48.160;11.452;2023-10-19T11:25:28;16.10;99.90
30473;DHT22;17263;48.160;11.452;2023-10-19T11:27:56;16.20;99.90
30473;DHT22;17263;48.160;11.452;2023-10-19T11:30:27;16.30;99.90
30473;DHT22;17263;48.160;11.452;2023-10-19T11:32:54;16.30;99.90
30473;DHT22;17263;48.160;11.452;2023-10-19T11:35:26;16.30;99.90
30473;DHT22;17263;48.160;11.452;2023-10-19T11:37:54;16.30;99.90
30473;DHT22;17263;48.160;11.452;2023-10-19T11:40:22;16.30;99.90
30473;DHT22;17263;48.160;11.452;2023-10-19T11:42:49;16.30;99.90
30473;DHT22;17263;48.160;11.452;2023-10-19T11:45:16;16.20;99.90
30473;DHT22;17263;48.160;11.452;2023-10-19T11:47:46;16.30;99.90
30473;DHT22;17263;48.160;11.452;2023-10-19T11:50:12;16.40;99.90
30473;DHT22;17263;48.160;11.452;2023-10-19T11:52:42;16.60;99.90
30473;DHT22;17263;48.160;11.452;2023-10-19T11:55:08;16.70;99.90
30473;DHT22;17263;48.160;11.452;2023-10-19T11:57:35;16.70;99.90
30473;DHT22;17263;48.160;11.452;2023-10-19T12:00:05;16.80;99.90
30473;DHT22;17263;48.160;11.452;2023-10-19T12:02:35;16.80;99.90
30473;DHT22;17263;48.160;11.452;2023-10-19T12:05:04;16.90;99.90
30473;DHT22;17263;48.160;11.452;2023-10-19T12:07:38;16.90;99.90
30473;DHT22;17263;48.160;11.452;2023-10-19T12:10:09;17.00;99.90
30473;DHT22;17263;48.160;11.452;2023-10-19T12:12:36;17.10;99.90
30473;DHT22;17263;48.160;11.452;2023-10-19T12:15:06;17.10;99.90
30473;DHT22;17263;48.160;11.452;2023-10-19T12:17:32;17.10;99.90
30473;DHT22;17263;48.160;11.452;2023-10-19T12:19:59;17.00;99.90
30473;DHT22;17263;48.160;11.452;2023-10-19T12:22:25;16.90;99.90
30473;DHT22;17263;48.160;11.452;2023-10-19T12:24:57;16.90;99.90
30473;DHT22;17263;48.160;11.452;2023-10-19T12:27:24;16.80;99.90
30473;DHT22;17263;48.160;11.452;2023-10-19T12:29:54;16.90;99.90
30473;DHT22;17263;48.160;11.452;2023-10-19T12:32:21;16.90;99.90
30473;DHT22;17263;48.160;11.452;2023-10-19T12:34:48;16.90;99.90
30473;DHT22;17263;48.160;11.452;2023-10-19T12:37:19;17.00;99.90
30473;DHT22;17263;48.160;11.452;2023-10-19T12:39:45;17.20;99.90
30473;DHT22;17263;48.160;11.452;2023-10-19T12:42:15;17.30;99.90
30473;DHT22;17263;48.160;11.452;2023-10-19T12:44:41;17.40;99.90
30473;DHT22;17263;48.160;11.452;2023-10-19T12:47:11;17.40;99.90
30473;DHT22;17263;48.160;11.452;2023-10-19T12:49:41;17.40;99.90
30473;DHT22;17263;48.160;11.452;2023-10-19T12:52:08;17.50;99.90
30473;DHT22;17263;48.160;11.452;2023-10-19T12:54:34;17.60;99.90
30473;DHT22;17263;48.160;11.452;2023-10-19T12:57:02;17.70;99.90
30473;DHT22;17263;48.160;11.452;2023-10-19T12:59:30;17.50;99.90
30473;DHT22;17263;48.160;11.452;2023-10-19T13:01:56;17.50;99.90
30473;DHT22;17263;48.160;11.452;2023-10-19T13:04:25;17.50;99.90
30473;DHT22;17263;48.160;11.452;2023-10-19T13:06:51;17.40;99.90
30473;DHT22;17263;48.160;11.452;2023-10-19T13:09:18;17.40;99.90
30473;DHT22;17263;48.160;11.452;2023-10-19T13:11:57;17.30;99.90
30473;DHT22;17263;48.160;11.452;2023-10-19T13:14:24;17.20;99.90
30473;DHT22;17263;48.160;11.452;2023-10-19T13:16:50;17.30;99.90
30473;DHT22;17263;48.160;11.452;2023-10-19T13:19:18;17.20;99.90
30473;DHT22;17263;48.160;11.452;2023-10-19T13:21:50;17.10;99.90
30473;DHT22;17263;48.160;11.452;2023-10-19T13:24:17;17.10;99.90
30473;DHT22;17263;48.160;11.452;2023-10-19T13:26:47;17.20;99.90
30473;DHT22;17263;48.160;11.452;2023-10-19T13:29:13;17.20;99.90
30473;DHT22;17263;48.160;11.452;2023-10-19T13:31:41;17.20;99.90
30473;DHT22;17263;48.160;11.452;2023-10-19T13:34:18;17.00;99.90
30473;DHT22;17263;48.160;11.452;2023-10-19T13:36:44;17.00;99.90
30473;DHT22;17263;48.160;11.452;2023-10-19T13:39:12;16.90;99.90
30473;DHT22;17263;48.160;11.452;2023-10-19T13:41:43;16.90;99.90
30473;DHT22;17263;48.160;11.452;2023-10-19T13:44:09;16.80;99.90
30473;DHT22;17263;48.160;11.452;2023-10-19T13:46:36;16.80;99.90
30473;DHT22;17263;48.160;11.452;2023-10-19T13:49:03;16.70;99.90
30473;DHT22;17263;48.160;11.452;2023-10-19T13:51:31;16.70;99.90
30473;DHT22;17263;48.160;11.452;2023-10-19T13:53:57;16.50;99.90
30473;DHT22;17263;48.160;11.452;2023-10-19T13:56:23;16.40;99.90
30473;DHT22;17263;48.160;11.452;2023-10-19T13:58:51;16.30;99.90
30473;DHT22;17263;48.160;11.452;2023-10-19T14:01:17;16.30;99.90
30473;DHT22;17263;48.160;11.452;2023-10-19T14:03:43;16.10;99.90
30473;DHT22;17263;48.160;11.452;2023-10-19T14:06:13;16.00;99.90
30473;DHT22;17263;48.160;11.452;2023-10-19T14:08:39;15.90;99.90
30473;DHT22;17263;48.160;11.452;2023-10-19T14:11:06;15.90;99.90
30473;DHT22;17263;48.160;11.452;2023-10-19T14:13:33;16.00;99.90
30473;DHT22;17263;48.160;11.452;2023-10-19T14:15:59;16.00;99.90
30473;DHT22;17263;48.160;11.452;2023-10-19T14:18:25;15.90;99.90
30473;DHT22;17263;48.160;11.452;2023-10-19T14:20:52;15.90;99.90
30473;DHT22;17263;48.160;11.452;2023-10-19T14:23:18;15.90;99.90
30473;DHT22;17263;48.160;11.452;2023-10-19T14:25:44;15.80;99.90
30473;DHT22;17263;48.160;11.452;2023-10-19T14:28:10;15.70;99.90
30473;DHT22;17263;48.160;11.452;2023-10-19T14:30:37;15.70;99.90
30473;DHT22;17263;48.160;11.452;2023-10-19T14:33:04;15.70;99.90
30473;DHT22;17263;48.160;11.452;2023-10-19T14:35:35;15.60;99.90
30473;DHT22;17263;48.160;11.452;2023-10-19T14:38:02;15.50;99.90
30473;DHT22;17263;48.160;11.452;2023-10-19T14:40:29;15.40;99.90
30473;DHT22;17263;48.160;11.452;2023-10-19T14:42:56;15.40;99.90
30473;DHT22;17263;48.160;11.452;2023-10-19T14:45:25;15.40;99.90
30473;DHT22;17263;48.160;11.452;2023-10-19T14:47:58;15.30;99.90
30473;DHT22;17263;48.160;11.452;2023-10-19T14:50:25;15.40;99.90
30473;DHT22;17263;48.160;11.452;2023-10-19T14:52:53;15.40;99.90
30473;DHT22;17263;48.160;11.452;2023-10-19T14:55:23;15.40;99.90
30473;DHT22;17263;48.160;11.452;2023-10-19T14:57:50;15.40;99.90
30473;DHT22;17263;48.160;11.452;2023-10-19T15:00:21;15.40;99.90
30473;DHT22;17263;48.160;11.452;2023-10-19T15:02:50;15.30;99.90
30473;DHT22;17263;48.160;11.452;2023-10-19T15:05:17;15.30;99.90
30473;DHT22;17263;48.160;11.452;2023-10-19T15:07:48;15.20;99.90
30473;DHT22;17263;48.160;11.452;2023-10-19T15:10:27;15.00;99.90
30473;DHT22;17263;48.160;11.452;2023-10-19T15:12:54;14.90;99.90
30473;DHT22;17263;48.160;11.452;2023-10-19T15:15:22;14.80;99.90
30473;DHT22;17263;48.160;11.452;2023-10-19T15:17:48;14.80;99.90
30473;DHT22;17263;48.160;11.452;2023-10-19T15:20:19;14.70;99.90
30473;DHT22;17263;48.160;11.452;2023-10-19T15:22:46;14.70;99.90
30473;DHT22;17263;48.160;11.452;2023-10-19T15:25:13;14.60;99.90
30473;DHT22;17263;48.160;11.452;2023-10-19T15:27:41;14.60;99.90
30473;DHT22;17263;48.160;11.452;2023-10-19T15:30:09;14.60;99.90
30473;DHT22;17263;48.160;11.452;2023-10-19T15:32:40;14.60;99.90
30473;DHT22;17263;48.160;11.452;2023-10-19T15:35:10;14.60;99.90
30473;DHT22;17263;48.160;11.452;2023-10-19T15:37:40;14.50;99.90
30473;DHT22;17263;48.160;11.452;2023-10-19T15:40:08;14.50;99.90
30473;DHT22;17263;48.160;11.452;2023-10-19T15:42:42;14.50;99.90
30473;DHT22;17263;48.160;11.452;2023-10-19T15:45:12;14.40;99.90
30473;DHT22;17263;48.160;11.452;2023-10-19T15:47:39;14.50;99.90
30473;DHT22;17263;48.160;11.452;2023-10-19T15:50:07;14.50;99.90
30473;DHT22;17263;48.160;11.452;2023-10-19T15:52:34;14.40;99.90